Terminal Aerodrome Forecast
Issued by NWS

Home | Current Version | Previous Version | Text Only | Print | Product List | Glossary On
Versions: 1 2 3 4 5 6 7 8 9 10 11 12 13 14 15
000
FTAK31 PAJN 310541
TAFAGY
TAF
PAGY 310541Z 3106/0106 21008KT P6SM FEW080 FEW200
     FM311200 VRB03KT P6SM SCT080 BKN150
     FM311800 00000KT P6SM VCSH SCT050 BKN100
     FM312100 21008KT P6SM -SHRA OVC050
      AMD LTD TO CLD VIS AND WIND=

USA.gov is the U.S. government's official web portal to all federal, state and local government web resources and services.